Portada
METAR-TAF:

METAR-TAF

Aeropuertos :

Aeropuerto Internacional de Basora

Basora, Iraq

latitud: 30-32-56N, longitud: 47-39-45E, altitud: 1 m

Observación

El informe se hizo hace 41 minutos, a las 12:00 UTC
Viento 8 kt del oeste-noroeste
Temperatura 19°C
Humedad 32%
Presión 1022 hPa
Visibilidad 10 km o más
sin nubes por debajo de 1500 m y sin presencia de cumulonimbus.

METAR: ORMM 031200Z 30008KT CAVOK 19/02 Q1022 NOSIG

Hora: 15:41 (12:41 UTC)

Pronóstico

El informe se hizo hace 2 horas y 41 minutos, a las 10:00 UTC
Pronóstico válido del 03 a las 12 UTC al 04 a las 12 UTC
Viento 10 kt del oeste
Visibilidad: 8000 m
Temporalmente
del 04 a las 00 UTC al 04 a las 06 UTC
Visibilidad: 4000 m
neblina

TAF: ORMM 031000Z 0312/0412 28010KT 8000 NSC TEMPO 0400/0406 4000 BR

Observaciones y pronósticos meteorológicos de más de 4000 aeropuertos (mensajes METAR y TAF).

Los puntos amarillos y rojos representan las estaciones disponibles.

Ponga el ratón en el punto deseado para ver el nombre de la estación.

Haga clic para ver las observaciones y los pronósticos meteorológicos.

Para cambiar el mapa : haga clic en los botones verdes con una cruz de color negro para hacer un zoom, en el botón verde con un guión para alejar o en las flechas verdes para mapas adyacentes.


METAR-TAF: